sensor_id;sensor_type;location;lat;lon;timestamp;P1;durP1;ratioP1;P2;durP2;ratioP2
11887;SDS011;6003;42.756;23.130;2023-02-28T00:00:06;0.77;;;0.77;;
11887;SDS011;6003;42.756;23.130;2023-02-28T00:02:35;0.80;;;0.80;;
11887;SDS011;6003;42.756;23.130;2023-02-28T00:05:02;1.07;;;1.03;;
11887;SDS011;6003;42.756;23.130;2023-02-28T00:07:30;0.50;;;0.50;;
11887;SDS011;6003;42.756;23.130;2023-02-28T00:09:57;0.50;;;0.50;;
11887;SDS011;6003;42.756;23.130;2023-02-28T00:12:26;0.50;;;0.50;;
11887;SDS011;6003;42.756;23.130;2023-02-28T00:14:53;0.53;;;0.53;;
11887;SDS011;6003;42.756;23.130;2023-02-28T00:17:20;1.73;;;1.03;;
11887;SDS011;6003;42.756;23.130;2023-02-28T00:19:47;1.30;;;1.20;;
11887;SDS011;6003;42.756;23.130;2023-02-28T00:22:14;1.50;;;1.40;;
11887;SDS011;6003;42.756;23.130;2023-02-28T00:24:41;0.93;;;0.70;;
11887;SDS011;6003;42.756;23.130;2023-02-28T00:27:08;1.50;;;0.87;;
11887;SDS011;6003;42.756;23.130;2023-02-28T00:29:37;0.60;;;0.57;;
11887;SDS011;6003;42.756;23.130;2023-02-28T00:32:04;0.70;;;0.70;;
11887;SDS011;6003;42.756;23.130;2023-02-28T00:34:32;0.67;;;0.60;;
11887;SDS011;6003;42.756;23.130;2023-02-28T00:37:02;0.50;;;0.43;;
11887;SDS011;6003;42.756;23.130;2023-02-28T00:39:30;0.43;;;0.43;;
11887;SDS011;6003;42.756;23.130;2023-02-28T00:41:57;0.43;;;0.43;;
11887;SDS011;6003;42.756;23.130;2023-02-28T00:44:24;1.23;;;1.07;;
11887;SDS011;6003;42.756;23.130;2023-02-28T00:46:52;0.60;;;0.60;;
11887;SDS011;6003;42.756;23.130;2023-02-28T00:49:19;2.23;;;1.53;;
11887;SDS011;6003;42.756;23.130;2023-02-28T00:51:46;1.40;;;1.30;;
11887;SDS011;6003;42.756;23.130;2023-02-28T00:54:13;2.37;;;1.17;;
11887;SDS011;6003;42.756;23.130;2023-02-28T00:56:40;1.30;;;1.17;;
11887;SDS011;6003;42.756;23.130;2023-02-28T00:59:07;0.67;;;0.67;;
11887;SDS011;6003;42.756;23.130;2023-02-28T01:01:34;0.60;;;0.60;;
11887;SDS011;6003;42.756;23.130;2023-02-28T01:04:02;0.53;;;0.53;;
11887;SDS011;6003;42.756;23.130;2023-02-28T01:06:29;0.60;;;0.60;;
11887;SDS011;6003;42.756;23.130;2023-02-28T01:08:56;0.77;;;0.77;;
11887;SDS011;6003;42.756;23.130;2023-02-28T01:11:23;5.13;;;1.00;;
11887;SDS011;6003;42.756;23.130;2023-02-28T01:13:50;0.50;;;0.50;;
11887;SDS011;6003;42.756;23.130;2023-02-28T01:16:17;0.80;;;0.80;;
11887;SDS011;6003;42.756;23.130;2023-02-28T01:18:44;1.50;;;0.80;;
11887;SDS011;6003;42.756;23.130;2023-02-28T01:21:14;1.27;;;1.07;;
11887;SDS011;6003;42.756;23.130;2023-02-28T01:23:41;0.80;;;0.80;;
11887;SDS011;6003;42.756;23.130;2023-02-28T01:26:10;1.80;;;0.90;;
11887;SDS011;6003;42.756;23.130;2023-02-28T01:28:38;1.43;;;1.33;;
11887;SDS011;6003;42.756;23.130;2023-02-28T01:31:05;1.17;;;1.10;;
11887;SDS011;6003;42.756;23.130;2023-02-28T01:33:33;0.93;;;0.87;;
11887;SDS011;6003;42.756;23.130;2023-02-28T01:36:00;0.80;;;0.80;;
11887;SDS011;6003;42.756;23.130;2023-02-28T01:38:29;4.60;;;1.37;;
11887;SDS011;6003;42.756;23.130;2023-02-28T01:40:56;1.40;;;1.30;;
11887;SDS011;6003;42.756;23.130;2023-02-28T01:43:24;0.97;;;0.97;;
11887;SDS011;6003;42.756;23.130;2023-02-28T01:45:53;0.50;;;0.50;;
11887;SDS011;6003;42.756;23.130;2023-02-28T01:48:21;1.60;;;1.50;;
11887;SDS011;6003;42.756;23.130;2023-02-28T01:50:52;0.53;;;0.53;;
11887;SDS011;6003;42.756;23.130;2023-02-28T01:53:21;1.10;;;0.77;;
11887;SDS011;6003;42.756;23.130;2023-02-28T01:55:54;1.20;;;1.03;;
11887;SDS011;6003;42.756;23.130;2023-02-28T01:58:21;0.97;;;0.93;;
11887;SDS011;6003;42.756;23.130;2023-02-28T02:00:48;1.90;;;1.43;;
11887;SDS011;6003;42.756;23.130;2023-02-28T02:03:16;0.53;;;0.53;;
11887;SDS011;6003;42.756;23.130;2023-02-28T02:05:45;1.50;;;1.37;;
11887;SDS011;6003;42.756;23.130;2023-02-28T02:08:13;0.73;;;0.60;;
11887;SDS011;6003;42.756;23.130;2023-02-28T02:10:43;0.70;;;0.67;;
11887;SDS011;6003;42.756;23.130;2023-02-28T02:13:17;0.90;;;0.73;;
11887;SDS011;6003;42.756;23.130;2023-02-28T02:15:54;0.90;;;0.90;;
11887;SDS011;6003;42.756;23.130;2023-02-28T02:18:30;0.57;;;0.57;;
11887;SDS011;6003;42.756;23.130;2023-02-28T02:24:15;0.70;;;0.63;;
11887;SDS011;6003;42.756;23.130;2023-02-28T02:26:58;0.83;;;0.83;;
11887;SDS011;6003;42.756;23.130;2023-02-28T02:32:42;0.80;;;0.80;;
11887;SDS011;6003;42.756;23.130;2023-02-28T02:35:24;0.50;;;0.50;;
11887;SDS011;6003;42.756;23.130;2023-02-28T02:37:56;0.60;;;0.60;;
11887;SDS011;6003;42.756;23.130;2023-02-28T02:40:33;1.47;;;0.97;;
11887;SDS011;6003;42.756;23.130;2023-02-28T02:43:07;1.17;;;1.07;;
11887;SDS011;6003;42.756;23.130;2023-02-28T02:45:39;0.57;;;0.50;;
11887;SDS011;6003;42.756;23.130;2023-02-28T02:48:12;1.70;;;1.60;;
11887;SDS011;6003;42.756;23.130;2023-02-28T02:50:49;0.60;;;0.53;;
11887;SDS011;6003;42.756;23.130;2023-02-28T02:53:18;1.03;;;0.73;;
11887;SDS011;6003;42.756;23.130;2023-02-28T02:55:48;1.13;;;0.77;;
11887;SDS011;6003;42.756;23.130;2023-02-28T02:58:20;1.27;;;1.27;;
11887;SDS011;6003;42.756;23.130;2023-02-28T03:00:52;0.50;;;0.50;;
11887;SDS011;6003;42.756;23.130;2023-02-28T03:03:21;1.47;;;1.37;;
11887;SDS011;6003;42.756;23.130;2023-02-28T03:05:55;0.70;;;0.70;;
11887;SDS011;6003;42.756;23.130;2023-02-28T03:08:23;0.83;;;0.83;;
11887;SDS011;6003;42.756;23.130;2023-02-28T03:10:51;0.70;;;0.70;;
11887;SDS011;6003;42.756;23.130;2023-02-28T03:13:32;0.87;;;0.87;;
11887;SDS011;6003;42.756;23.130;2023-02-28T03:16:17;0.73;;;0.73;;
11887;SDS011;6003;42.756;23.130;2023-02-28T03:19:08;0.77;;;0.63;;
11887;SDS011;6003;42.756;23.130;2023-02-28T03:21:51;1.30;;;0.90;;
11887;SDS011;6003;42.756;23.130;2023-02-28T03:24:26;2.43;;;1.07;;
11887;SDS011;6003;42.756;23.130;2023-02-28T03:27:03;0.60;;;0.53;;
11887;SDS011;6003;42.756;23.130;2023-02-28T03:29:35;0.80;;;0.80;;
11887;SDS011;6003;42.756;23.130;2023-02-28T03:32:08;2.53;;;1.10;;
11887;SDS011;6003;42.756;23.130;2023-02-28T03:34:43;0.93;;;0.70;;
11887;SDS011;6003;42.756;23.130;2023-02-28T03:37:16;0.80;;;0.80;;
11887;SDS011;6003;42.756;23.130;2023-02-28T03:39:46;1.50;;;1.10;;
11887;SDS011;6003;42.756;23.130;2023-02-28T03:42:18;1.17;;;0.67;;
11887;SDS011;6003;42.756;23.130;2023-02-28T03:44:49;1.13;;;1.13;;
11887;SDS011;6003;42.756;23.130;2023-02-28T03:47:21;0.40;;;0.40;;
11887;SDS011;6003;42.756;23.130;2023-02-28T03:49:52;0.83;;;0.83;;
11887;SDS011;6003;42.756;23.130;2023-02-28T03:52:25;0.63;;;0.63;;
11887;SDS011;6003;42.756;23.130;2023-02-28T03:54:55;0.87;;;0.87;;
11887;SDS011;6003;42.756;23.130;2023-02-28T03:57:30;0.40;;;0.40;;
11887;SDS011;6003;42.756;23.130;2023-02-28T04:00:05;1.50;;;1.43;;
11887;SDS011;6003;42.756;23.130;2023-02-28T04:02:36;1.57;;;1.17;;
11887;SDS011;6003;42.756;23.130;2023-02-28T04:05:03;0.83;;;0.83;;
11887;SDS011;6003;42.756;23.130;2023-02-28T04:07:31;0.77;;;0.77;;
11887;SDS011;6003;42.756;23.130;2023-02-28T04:09:59;0.80;;;0.80;;
11887;SDS011;6003;42.756;23.130;2023-02-28T04:12:25;0.60;;;0.60;;
11887;SDS011;6003;42.756;23.130;2023-02-28T04:14:52;0.43;;;0.43;;
11887;SDS011;6003;42.756;23.130;2023-02-28T04:17:19;1.93;;;0.83;;
11887;SDS011;6003;42.756;23.130;2023-02-28T04:19:46;0.77;;;0.77;;
11887;SDS011;6003;42.756;23.130;2023-02-28T04:22:13;1.50;;;1.03;;
11887;SDS011;6003;42.756;23.130;2023-02-28T04:24:41;2.07;;;1.13;;
11887;SDS011;6003;42.756;23.130;2023-02-28T04:27:08;0.67;;;0.67;;
11887;SDS011;6003;42.756;23.130;2023-02-28T04:29:35;0.57;;;0.57;;
11887;SDS011;6003;42.756;23.130;2023-02-28T04:32:02;0.90;;;0.90;;
11887;SDS011;6003;42.756;23.130;2023-02-28T04:34:30;0.87;;;0.87;;
11887;SDS011;6003;42.756;23.130;2023-02-28T04:36:58;0.40;;;0.40;;
11887;SDS011;6003;42.756;23.130;2023-02-28T04:39:25;0.53;;;0.53;;
11887;SDS011;6003;42.756;23.130;2023-02-28T04:41:54;0.80;;;0.80;;
11887;SDS011;6003;42.756;23.130;2023-02-28T04:44:20;0.73;;;0.73;;
11887;SDS011;6003;42.756;23.130;2023-02-28T04:46:48;0.60;;;0.60;;
11887;SDS011;6003;42.756;23.130;2023-02-28T04:49:15;1.33;;;1.23;;
11887;SDS011;6003;42.756;23.130;2023-02-28T04:51:42;0.60;;;0.60;;
11887;SDS011;6003;42.756;23.130;2023-02-28T04:54:08;1.30;;;0.67;;
11887;SDS011;6003;42.756;23.130;2023-02-28T04:56:35;0.77;;;0.77;;
11887;SDS011;6003;42.756;23.130;2023-02-28T04:59:03;0.83;;;0.83;;
11887;SDS011;6003;42.756;23.130;2023-02-28T05:01:31;0.57;;;0.57;;
11887;SDS011;6003;42.756;23.130;2023-02-28T05:04:01;1.10;;;0.90;;
11887;SDS011;6003;42.756;23.130;2023-02-28T05:06:29;0.60;;;0.60;;
11887;SDS011;6003;42.756;23.130;2023-02-28T05:08:57;0.40;;;0.40;;
11887;SDS011;6003;42.756;23.130;2023-02-28T05:11:26;0.60;;;0.60;;
11887;SDS011;6003;42.756;23.130;2023-02-28T05:13:59;0.70;;;0.70;;
11887;SDS011;6003;42.756;23.130;2023-02-28T05:16:28;1.37;;;1.27;;
11887;SDS011;6003;42.756;23.130;2023-02-28T05:18:54;0.80;;;0.80;;
11887;SDS011;6003;42.756;23.130;2023-02-28T05:21:26;0.60;;;0.60;;
11887;SDS011;6003;42.756;23.130;2023-02-28T05:23:55;2.10;;;1.47;;
11887;SDS011;6003;42.756;23.130;2023-02-28T05:26:23;0.63;;;0.63;;
11887;SDS011;6003;42.756;23.130;2023-02-28T05:28:51;0.70;;;0.70;;
11887;SDS011;6003;42.756;23.130;2023-02-28T05:31:18;0.70;;;0.67;;
11887;SDS011;6003;42.756;23.130;2023-02-28T05:33:46;0.67;;;0.63;;
11887;SDS011;6003;42.756;23.130;2023-02-28T05:36:13;0.70;;;0.70;;
11887;SDS011;6003;42.756;23.130;2023-02-28T05:38:40;2.00;;;1.87;;
11887;SDS011;6003;42.756;23.130;2023-02-28T05:41:08;1.40;;;1.30;;
11887;SDS011;6003;42.756;23.130;2023-02-28T05:43:36;2.17;;;0.73;;
11887;SDS011;6003;42.756;23.130;2023-02-28T05:46:04;1.17;;;1.10;;
11887;SDS011;6003;42.756;23.130;2023-02-28T05:48:32;2.57;;;1.60;;
11887;SDS011;6003;42.756;23.130;2023-02-28T05:51:01;2.50;;;1.37;;
11887;SDS011;6003;42.756;23.130;2023-02-28T05:53:28;0.83;;;0.73;;
11887;SDS011;6003;42.756;23.130;2023-02-28T05:55:56;0.43;;;0.43;;
11887;SDS011;6003;42.756;23.130;2023-02-28T05:58:22;0.60;;;0.60;;
11887;SDS011;6003;42.756;23.130;2023-02-28T06:00:50;1.70;;;1.03;;
11887;SDS011;6003;42.756;23.130;2023-02-28T06:03:17;0.57;;;0.57;;
11887;SDS011;6003;42.756;23.130;2023-02-28T06:05:44;0.77;;;0.60;;
11887;SDS011;6003;42.756;23.130;2023-02-28T06:08:12;4.73;;;0.97;;
11887;SDS011;6003;42.756;23.130;2023-02-28T06:10:39;0.60;;;0.60;;
11887;SDS011;6003;42.756;23.130;2023-02-28T06:13:06;2.20;;;1.17;;
11887;SDS011;6003;42.756;23.130;2023-02-28T06:15:32;0.80;;;0.80;;
11887;SDS011;6003;42.756;23.130;2023-02-28T06:17:59;1.13;;;1.13;;
11887;SDS011;6003;42.756;23.130;2023-02-28T06:20:26;1.30;;;1.30;;
11887;SDS011;6003;42.756;23.130;2023-02-28T06:22:54;1.03;;;1.03;;
11887;SDS011;6003;42.756;23.130;2023-02-28T06:25:24;0.50;;;0.50;;
11887;SDS011;6003;42.756;23.130;2023-02-28T06:27:52;1.20;;;1.07;;
11887;SDS011;6003;42.756;23.130;2023-02-28T06:30:19;0.83;;;0.83;;
11887;SDS011;6003;42.756;23.130;2023-02-28T06:32:49;2.10;;;1.83;;
11887;SDS011;6003;42.756;23.130;2023-02-28T06:35:17;0.90;;;0.87;;
11887;SDS011;6003;42.756;23.130;2023-02-28T06:37:43;4.10;;;1.43;;
11887;SDS011;6003;42.756;23.130;2023-02-28T06:40:12;1.23;;;1.10;;
11887;SDS011;6003;42.756;23.130;2023-02-28T06:42:41;1.33;;;1.20;;
11887;SDS011;6003;42.756;23.130;2023-02-28T06:45:08;1.83;;;1.77;;
11887;SDS011;6003;42.756;23.130;2023-02-28T06:47:35;0.60;;;0.60;;
11887;SDS011;6003;42.756;23.130;2023-02-28T06:50:03;1.03;;;1.03;;
11887;SDS011;6003;42.756;23.130;2023-02-28T06:52:31;1.00;;;1.00;;
11887;SDS011;6003;42.756;23.130;2023-02-28T06:55:01;1.20;;;1.20;;
11887;SDS011;6003;42.756;23.130;2023-02-28T06:57:28;1.77;;;1.73;;
11887;SDS011;6003;42.756;23.130;2023-02-28T06:59:59;1.33;;;1.23;;
11887;SDS011;6003;42.756;23.130;2023-02-28T07:02:27;0.93;;;0.93;;
11887;SDS011;6003;42.756;23.130;2023-02-28T07:04:55;0.97;;;0.97;;
11887;SDS011;6003;42.756;23.130;2023-02-28T07:07:21;1.47;;;1.40;;
11887;SDS011;6003;42.756;23.130;2023-02-28T07:09:48;2.27;;;2.17;;
11887;SDS011;6003;42.756;23.130;2023-02-28T07:12:15;1.50;;;1.50;;
11887;SDS011;6003;42.756;23.130;2023-02-28T07:14:42;1.77;;;1.43;;
11887;SDS011;6003;42.756;23.130;2023-02-28T07:17:10;1.23;;;1.23;;
11887;SDS011;6003;42.756;23.130;2023-02-28T07:19:38;1.10;;;1.10;;
11887;SDS011;6003;42.756;23.130;2023-02-28T07:22:05;1.67;;;1.67;;
11887;SDS011;6003;42.756;23.130;2023-02-28T07:24:32;1.40;;;1.30;;
11887;SDS011;6003;42.756;23.130;2023-02-28T07:26:59;1.10;;;1.10;;
11887;SDS011;6003;42.756;23.130;2023-02-28T07:29:26;1.57;;;1.47;;
11887;SDS011;6003;42.756;23.130;2023-02-28T07:31:53;0.83;;;0.83;;
11887;SDS011;6003;42.756;23.130;2023-02-28T07:34:22;0.77;;;0.77;;
11887;SDS011;6003;42.756;23.130;2023-02-28T07:36:49;0.97;;;0.83;;
11887;SDS011;6003;42.756;23.130;2023-02-28T07:39:32;0.90;;;0.90;;
11887;SDS011;6003;42.756;23.130;2023-02-28T07:41:59;1.13;;;1.13;;
11887;SDS011;6003;42.756;23.130;2023-02-28T07:44:28;0.80;;;0.80;;
11887;SDS011;6003;42.756;23.130;2023-02-28T07:46:55;0.80;;;0.80;;
11887;SDS011;6003;42.756;23.130;2023-02-28T07:49:23;3.13;;;2.83;;
11887;SDS011;6003;42.756;23.130;2023-02-28T07:51:50;1.60;;;1.27;;
11887;SDS011;6003;42.756;23.130;2023-02-28T07:54:17;2.17;;;2.07;;
11887;SDS011;6003;42.756;23.130;2023-02-28T07:56:44;2.53;;;2.43;;
11887;SDS011;6003;42.756;23.130;2023-02-28T07:59:11;1.87;;;1.73;;
11887;SDS011;6003;42.756;23.130;2023-02-28T08:01:38;2.47;;;1.70;;
11887;SDS011;6003;42.756;23.130;2023-02-28T08:04:05;1.23;;;1.23;;
11887;SDS011;6003;42.756;23.130;2023-02-28T08:06:33;1.60;;;1.60;;
11887;SDS011;6003;42.756;23.130;2023-02-28T08:09:00;3.10;;;1.93;;
11887;SDS011;6003;42.756;23.130;2023-02-28T08:11:27;3.60;;;2.40;;
11887;SDS011;6003;42.756;23.130;2023-02-28T08:13:54;3.27;;;1.93;;
11887;SDS011;6003;42.756;23.130;2023-02-28T08:16:21;1.30;;;1.10;;
11887;SDS011;6003;42.756;23.130;2023-02-28T08:18:48;3.30;;;2.57;;
11887;SDS011;6003;42.756;23.130;2023-02-28T08:21:15;2.00;;;1.90;;
11887;SDS011;6003;42.756;23.130;2023-02-28T08:23:45;2.80;;;2.60;;
11887;SDS011;6003;42.756;23.130;2023-02-28T08:26:12;8.20;;;1.80;;
11887;SDS011;6003;42.756;23.130;2023-02-28T08:28:39;1.23;;;1.23;;
11887;SDS011;6003;42.756;23.130;2023-02-28T08:31:09;1.93;;;1.83;;
11887;SDS011;6003;42.756;23.130;2023-02-28T08:33:38;1.33;;;1.33;;
11887;SDS011;6003;42.756;23.130;2023-02-28T08:36:06;1.37;;;1.37;;
11887;SDS011;6003;42.756;23.130;2023-02-28T08:38:35;1.73;;;1.43;;
11887;SDS011;6003;42.756;23.130;2023-02-28T08:41:04;3.37;;;3.17;;
11887;SDS011;6003;42.756;23.130;2023-02-28T08:43:33;3.07;;;2.10;;
11887;SDS011;6003;42.756;23.130;2023-02-28T08:46:00;1.87;;;1.80;;
11887;SDS011;6003;42.756;23.130;2023-02-28T08:48:27;2.17;;;2.07;;
11887;SDS011;6003;42.756;23.130;2023-02-28T08:50:56;2.00;;;1.90;;
11887;SDS011;6003;42.756;23.130;2023-02-28T08:53:23;1.60;;;1.57;;
11887;SDS011;6003;42.756;23.130;2023-02-28T08:55:56;1.73;;;1.63;;
11887;SDS011;6003;42.756;23.130;2023-02-28T08:58:25;6.07;;;2.87;;
11887;SDS011;6003;42.756;23.130;2023-02-28T09:00:53;2.73;;;2.63;;
11887;SDS011;6003;42.756;23.130;2023-02-28T09:03:20;4.20;;;3.60;;
11887;SDS011;6003;42.756;23.130;2023-02-28T09:05:54;2.07;;;1.97;;
11887;SDS011;6003;42.756;23.130;2023-02-28T09:08:22;5.10;;;4.63;;
11887;SDS011;6003;42.756;23.130;2023-02-28T09:10:50;3.37;;;3.17;;
11887;SDS011;6003;42.756;23.130;2023-02-28T09:13:17;2.27;;;2.13;;
11887;SDS011;6003;42.756;23.130;2023-02-28T09:15:45;3.30;;;3.10;;
11887;SDS011;6003;42.756;23.130;2023-02-28T09:18:12;3.03;;;2.83;;
11887;SDS011;6003;42.756;23.130;2023-02-28T09:20:40;2.43;;;1.97;;
11887;SDS011;6003;42.756;23.130;2023-02-28T09:23:08;3.27;;;3.07;;
11887;SDS011;6003;42.756;23.130;2023-02-28T09:25:36;2.93;;;2.73;;
11887;SDS011;6003;42.756;23.130;2023-02-28T09:28:04;3.90;;;3.60;;
11887;SDS011;6003;42.756;23.130;2023-02-28T09:30:30;5.67;;;3.30;;
11887;SDS011;6003;42.756;23.130;2023-02-28T09:32:59;2.40;;;2.20;;
11887;SDS011;6003;42.756;23.130;2023-02-28T09:35:26;2.93;;;2.80;;
11887;SDS011;6003;42.756;23.130;2023-02-28T09:37:52;3.07;;;2.50;;
11887;SDS011;6003;42.756;23.130;2023-02-28T09:40:20;3.60;;;2.93;;
11887;SDS011;6003;42.756;23.130;2023-02-28T09:42:50;2.50;;;2.30;;
11887;SDS011;6003;42.756;23.130;2023-02-28T09:45:21;3.20;;;2.83;;
11887;SDS011;6003;42.756;23.130;2023-02-28T09:47:53;1.97;;;1.87;;
11887;SDS011;6003;42.756;23.130;2023-02-28T09:50:28;2.57;;;2.30;;
11887;SDS011;6003;42.756;23.130;2023-02-28T09:52:59;5.83;;;4.27;;
11887;SDS011;6003;42.756;23.130;2023-02-28T09:55:30;4.57;;;3.10;;
11887;SDS011;6003;42.756;23.130;2023-02-28T09:58:01;3.00;;;2.90;;
11887;SDS011;6003;42.756;23.130;2023-02-28T10:00:30;4.97;;;4.47;;
11887;SDS011;6003;42.756;23.130;2023-02-28T10:03:14;2.57;;;2.43;;
11887;SDS011;6003;42.756;23.130;2023-02-28T10:05:52;2.80;;;2.70;;
11887;SDS011;6003;42.756;23.130;2023-02-28T10:08:25;1.67;;;1.57;;
11887;SDS011;6003;42.756;23.130;2023-02-28T10:10:57;3.83;;;3.47;;
11887;SDS011;6003;42.756;23.130;2023-02-28T10:13:27;2.93;;;2.73;;
11887;SDS011;6003;42.756;23.130;2023-02-28T10:16:01;2.17;;;2.07;;
11887;SDS011;6003;42.756;23.130;2023-02-28T10:18:35;4.93;;;2.07;;
11887;SDS011;6003;42.756;23.130;2023-02-28T10:21:11;3.57;;;3.23;;
11887;SDS011;6003;42.756;23.130;2023-02-28T10:23:47;3.23;;;2.93;;
11887;SDS011;6003;42.756;23.130;2023-02-28T10:26:16;3.77;;;2.60;;
11887;SDS011;6003;42.756;23.130;2023-02-28T10:28:44;5.10;;;2.60;;
11887;SDS011;6003;42.756;23.130;2023-02-28T10:31:11;2.23;;;2.13;;
11887;SDS011;6003;42.756;23.130;2023-02-28T10:33:43;3.10;;;2.40;;
11887;SDS011;6003;42.756;23.130;2023-02-28T10:36:12;4.00;;;2.80;;
11887;SDS011;6003;42.756;23.130;2023-02-28T10:38:42;4.37;;;3.97;;
11887;SDS011;6003;42.756;23.130;2023-02-28T10:41:10;3.90;;;3.30;;
11887;SDS011;6003;42.756;23.130;2023-02-28T10:43:39;3.83;;;3.43;;
11887;SDS011;6003;42.756;23.130;2023-02-28T10:46:12;8.40;;;4.13;;
11887;SDS011;6003;42.756;23.130;2023-02-28T10:48:57;2.07;;;1.97;;
11887;SDS011;6003;42.756;23.130;2023-02-28T10:51:35;1.63;;;1.53;;
11887;SDS011;6003;42.756;23.130;2023-02-28T10:54:04;2.97;;;2.83;;
11887;SDS011;6003;42.756;23.130;2023-02-28T10:56:31;3.53;;;3.23;;
11887;SDS011;6003;42.756;23.130;2023-02-28T10:58:59;1.77;;;1.57;;
11887;SDS011;6003;42.756;23.130;2023-02-28T11:01:36;2.73;;;2.53;;
11887;SDS011;6003;42.756;23.130;2023-02-28T11:04:16;2.43;;;2.33;;
11887;SDS011;6003;42.756;23.130;2023-02-28T11:06:45;2.60;;;2.50;;
11887;SDS011;6003;42.756;23.130;2023-02-28T11:09:17;3.90;;;3.07;;
11887;SDS011;6003;42.756;23.130;2023-02-28T11:11:48;2.63;;;2.07;;
11887;SDS011;6003;42.756;23.130;2023-02-28T11:14:17;7.70;;;2.67;;
11887;SDS011;6003;42.756;23.130;2023-02-28T11:16:47;4.57;;;4.13;;
11887;SDS011;6003;42.756;23.130;2023-02-28T11:19:17;4.40;;;2.50;;
11887;SDS011;6003;42.756;23.130;2023-02-28T11:21:50;2.07;;;1.90;;
11887;SDS011;6003;42.756;23.130;2023-02-28T11:24:22;3.37;;;2.27;;
11887;SDS011;6003;42.756;23.130;2023-02-28T11:26:52;2.87;;;2.63;;
11887;SDS011;6003;42.756;23.130;2023-02-28T11:29:21;2.60;;;2.50;;
11887;SDS011;6003;42.756;23.130;2023-02-28T11:34:39;2.13;;;2.00;;
11887;SDS011;6003;42.756;23.130;2023-02-28T11:37:11;3.70;;;2.90;;
11887;SDS011;6003;42.756;23.130;2023-02-28T11:39:41;3.20;;;2.90;;
11887;SDS011;6003;42.756;23.130;2023-02-28T11:42:15;2.33;;;2.20;;
11887;SDS011;6003;42.756;23.130;2023-02-28T11:45:11;1.70;;;1.60;;
11887;SDS011;6003;42.756;23.130;2023-02-28T11:47:46;2.50;;;2.40;;
11887;SDS011;6003;42.756;23.130;2023-02-28T11:50:17;1.83;;;1.73;;
11887;SDS011;6003;42.756;23.130;2023-02-28T11:52:54;2.33;;;2.23;;
11887;SDS011;6003;42.756;23.130;2023-02-28T11:55:25;10.10;;;2.43;;
11887;SDS011;6003;42.756;23.130;2023-02-28T11:58:01;1.27;;;1.27;;
11887;SDS011;6003;42.756;23.130;2023-02-28T12:01:14;3.40;;;1.83;;
11887;SDS011;6003;42.756;23.130;2023-02-28T12:03:55;1.87;;;1.77;;
11887;SDS011;6003;42.756;23.130;2023-02-28T12:06:28;1.63;;;1.53;;
11887;SDS011;6003;42.756;23.130;2023-02-28T12:09:09;2.17;;;2.07;;
11887;SDS011;6003;42.756;23.130;2023-02-28T12:11:47;3.70;;;1.40;;
11887;SDS011;6003;42.756;23.130;2023-02-28T12:14:22;1.73;;;1.60;;
11887;SDS011;6003;42.756;23.130;2023-02-28T12:17:04;2.63;;;2.37;;
11887;SDS011;6003;42.756;23.130;2023-02-28T12:19:41;2.23;;;2.03;;
11887;SDS011;6003;42.756;23.130;2023-02-28T12:22:22;1.33;;;1.33;;
11887;SDS011;6003;42.756;23.130;2023-02-28T12:25:01;2.00;;;1.67;;
11887;SDS011;6003;42.756;23.130;2023-02-28T12:27:48;1.67;;;1.57;;
11887;SDS011;6003;42.756;23.130;2023-02-28T12:30:19;2.60;;;2.00;;
11887;SDS011;6003;42.756;23.130;2023-02-28T12:32:51;8.17;;;3.00;;
11887;SDS011;6003;42.756;23.130;2023-02-28T12:35:23;1.40;;;1.40;;
11887;SDS011;6003;42.756;23.130;2023-02-28T12:37:56;1.17;;;1.17;;
11887;SDS011;6003;42.756;23.130;2023-02-28T12:40:41;1.77;;;1.67;;
11887;SDS011;6003;42.756;23.130;2023-02-28T12:43:11;1.30;;;1.30;;
11887;SDS011;6003;42.756;23.130;2023-02-28T12:45:42;2.70;;;1.50;;
11887;SDS011;6003;42.756;23.130;2023-02-28T12:48:14;4.47;;;1.97;;
11887;SDS011;6003;42.756;23.130;2023-02-28T12:50:46;2.07;;;1.67;;
11887;SDS011;6003;42.756;23.130;2023-02-28T12:53:15;2.17;;;1.77;;
11887;SDS011;6003;42.756;23.130;2023-02-28T12:55:54;1.30;;;1.20;;
11887;SDS011;6003;42.756;23.130;2023-02-28T12:58:29;1.10;;;1.10;;
11887;SDS011;6003;42.756;23.130;2023-02-28T13:07:12;3.13;;;1.40;;
11887;SDS011;6003;42.756;23.130;2023-02-28T13:09:56;2.07;;;1.37;;
11887;SDS011;6003;42.756;23.130;2023-02-28T13:12:27;1.43;;;1.33;;
11887;SDS011;6003;42.756;23.130;2023-02-28T13:15:01;1.20;;;1.20;;
11887;SDS011;6003;42.756;23.130;2023-02-28T13:17:38;2.63;;;1.50;;
11887;SDS011;6003;42.756;23.130;2023-02-28T13:20:13;20.53;;;3.73;;
11887;SDS011;6003;42.756;23.130;2023-02-28T13:22:43;1.47;;;1.37;;
11887;SDS011;6003;42.756;23.130;2023-02-28T13:34:35;1.53;;;1.43;;
11887;SDS011;6003;42.756;23.130;2023-02-28T13:43:01;1.33;;;1.33;;
11887;SDS011;6003;42.756;23.130;2023-02-28T13:45:29;2.80;;;2.67;;
11887;SDS011;6003;42.756;23.130;2023-02-28T13:48:04;1.10;;;1.10;;
11887;SDS011;6003;42.756;23.130;2023-02-28T13:50:43;1.40;;;1.30;;
11887;SDS011;6003;42.756;23.130;2023-02-28T13:53:26;2.43;;;1.63;;
11887;SDS011;6003;42.756;23.130;2023-02-28T13:56:23;1.13;;;1.13;;
11887;SDS011;6003;42.756;23.130;2023-02-28T13:58:57;4.13;;;1.20;;
11887;SDS011;6003;42.756;23.130;2023-02-28T14:01:39;2.70;;;2.60;;
11887;SDS011;6003;42.756;23.130;2023-02-28T14:07:18;2.00;;;1.90;;
11887;SDS011;6003;42.756;23.130;2023-02-28T14:09:51;1.57;;;1.57;;
11887;SDS011;6003;42.756;23.130;2023-02-28T14:15:30;1.53;;;1.43;;
11887;SDS011;6003;42.756;23.130;2023-02-28T14:18:05;1.47;;;1.37;;
11887;SDS011;6003;42.756;23.130;2023-02-28T14:20:42;2.43;;;1.10;;
11887;SDS011;6003;42.756;23.130;2023-02-28T14:23:14;1.07;;;0.97;;
11887;SDS011;6003;42.756;23.130;2023-02-28T14:25:51;3.27;;;1.53;;
11887;SDS011;6003;42.756;23.130;2023-02-28T14:28:25;4.47;;;0.90;;
11887;SDS011;6003;42.756;23.130;2023-02-28T14:31:07;9.07;;;1.73;;
11887;SDS011;6003;42.756;23.130;2023-02-28T14:33:41;0.67;;;0.67;;
11887;SDS011;6003;42.756;23.130;2023-02-28T14:36:16;3.07;;;2.27;;
11887;SDS011;6003;42.756;23.130;2023-02-28T14:38:49;3.17;;;1.83;;
11887;SDS011;6003;42.756;23.130;2023-02-28T14:41:20;0.67;;;0.67;;
11887;SDS011;6003;42.756;23.130;2023-02-28T14:43:49;5.43;;;2.77;;
11887;SDS011;6003;42.756;23.130;2023-02-28T14:46:18;2.27;;;2.17;;
11887;SDS011;6003;42.756;23.130;2023-02-28T14:48:45;3.50;;;1.97;;
11887;SDS011;6003;42.756;23.130;2023-02-28T14:51:17;4.23;;;2.67;;
11887;SDS011;6003;42.756;23.130;2023-02-28T14:53:49;2.10;;;2.00;;
11887;SDS011;6003;42.756;23.130;2023-02-28T14:56:19;0.60;;;0.60;;
11887;SDS011;6003;42.756;23.130;2023-02-28T14:58:52;2.77;;;2.50;;
11887;SDS011;6003;42.756;23.130;2023-02-28T15:01:20;3.70;;;1.90;;
11887;SDS011;6003;42.756;23.130;2023-02-28T15:03:56;0.90;;;0.90;;
11887;SDS011;6003;42.756;23.130;2023-02-28T15:06:24;2.27;;;1.90;;
11887;SDS011;6003;42.756;23.130;2023-02-28T15:11:37;1.20;;;1.20;;
11887;SDS011;6003;42.756;23.130;2023-02-28T15:14:06;1.23;;;1.23;;
11887;SDS011;6003;42.756;23.130;2023-02-28T15:16:34;1.17;;;1.10;;
11887;SDS011;6003;42.756;23.130;2023-02-28T15:19:12;6.77;;;1.40;;
11887;SDS011;6003;42.756;23.130;2023-02-28T15:21:44;1.10;;;1.00;;
11887;SDS011;6003;42.756;23.130;2023-02-28T15:24:17;1.17;;;1.17;;
11887;SDS011;6003;42.756;23.130;2023-02-28T15:26:51;1.67;;;1.57;;
11887;SDS011;6003;42.756;23.130;2023-02-28T15:29:21;0.87;;;0.87;;
11887;SDS011;6003;42.756;23.130;2023-02-28T15:31:50;1.10;;;1.00;;
11887;SDS011;6003;42.756;23.130;2023-02-28T15:34:22;2.53;;;1.13;;
11887;SDS011;6003;42.756;23.130;2023-02-28T15:36:54;1.47;;;1.37;;
11887;SDS011;6003;42.756;23.130;2023-02-28T15:39:23;1.90;;;0.90;;
11887;SDS011;6003;42.756;23.130;2023-02-28T15:41:58;1.00;;;1.00;;
11887;SDS011;6003;42.756;23.130;2023-02-28T15:44:36;1.00;;;1.00;;
11887;SDS011;6003;42.756;23.130;2023-02-28T15:47:03;1.43;;;1.33;;